createdAt,value
2023-04-02T00:00:15.420Z,100302.66
2023-04-02T00:01:28.484Z,100305.31
2023-04-02T00:02:22.897Z,100305.31
2023-04-02T00:03:15.375Z,100305.38
2023-04-02T00:04:22.341Z,100306.28
2023-04-02T00:05:18.283Z,100311.44
2023-04-02T00:06:33.932Z,100310.63
2023-04-02T00:07:33.304Z,100313.16
2023-04-02T00:08:42.862Z,100319.22
2023-04-02T00:09:38.041Z,100316.59
2023-04-02T00:10:40.045Z,100322.53
2023-04-02T00:11:37.435Z,100316.50
2023-04-02T00:12:31.325Z,100327.72
2023-04-02T00:13:35.661Z,100321.69
2023-04-02T00:14:32.014Z,100330.41
2023-04-02T00:15:23.508Z,100330.44
2023-04-02T00:16:23.728Z,100327.78
2023-04-02T00:17:18.250Z,100326.94
2023-04-02T00:18:18.310Z,100329.50
2023-04-02T00:19:29.553Z,100333.84
2023-04-02T00:20:22.938Z,100339.03
2023-04-02T00:21:21.242Z,100338.16
2023-04-02T00:22:22.446Z,100338.16
2023-04-02T00:23:15.469Z,100345.13
2023-04-02T00:24:20.230Z,100341.66
2023-04-02T00:25:15.794Z,100343.38
2023-04-02T00:26:21.565Z,100344.22
2023-04-02T00:27:15.681Z,100348.56
2023-04-02T00:28:14.070Z,100343.38
2023-04-02T00:29:07.381Z,100351.16
2023-04-02T00:29:59.296Z,100350.25
2023-04-02T00:30:55.511Z,100350.25
2023-04-02T00:31:52.677Z,100355.47
2023-04-02T00:32:44.350Z,100351.09
2023-04-02T00:33:36.170Z,100357.16
2023-04-02T00:34:37.656Z,100357.13
2023-04-02T00:35:30.817Z,100361.47
2023-04-02T00:36:28.096Z,100356.28
2023-04-02T00:37:23.739Z,100355.41
2023-04-02T00:38:20.262Z,100356.25
2023-04-02T00:39:20.262Z,100363.16
2023-04-02T00:40:25.595Z,100367.47
2023-04-02T00:41:24.187Z,100362.31
2023-04-02T00:42:18.157Z,100360.59
2023-04-02T00:43:16.428Z,100374.41
2023-04-02T00:44:12.421Z,100367.47
2023-04-02T00:45:07.672Z,100370.00
2023-04-02T00:46:04.032Z,100369.16
2023-04-02T00:46:58.220Z,100377.69
2023-04-02T00:47:50.944Z,100376.81
2023-04-02T00:48:56.205Z,100381.19
2023-04-02T00:49:56.973Z,100382.88
2023-04-02T00:50:49.170Z,100384.69
2023-04-02T00:51:56.727Z,100377.63
2023-04-02T00:52:53.967Z,100384.38
2023-04-02T00:53:49.229Z,100383.53
2023-04-02T00:54:53.243Z,100388.91
2023-04-02T00:55:46.123Z,100389.56
2023-04-02T00:56:41.973Z,100384.41
2023-04-02T00:57:34.821Z,100388.66
2023-04-02T00:58:33.600Z,100396.38
2023-04-02T00:59:31.437Z,100390.28
2023-04-02T01:00:29.224Z,100393.59
2023-04-02T01:01:26.858Z,100393.53
2023-04-02T01:02:18.490Z,100396.88
2023-04-02T01:03:16.919Z,100401.13
2023-04-02T01:04:32.568Z,100406.13
2023-04-02T01:05:24.530Z,100402.56
2023-04-02T01:06:18.789Z,100407.63
2023-04-02T01:07:12.261Z,100410.97
2023-04-02T01:08:06.725Z,100407.38
2023-04-02T01:09:26.701Z,100420.28
2023-04-02T01:10:42.579Z,100418.41
2023-04-02T01:11:47.904Z,100423.75
2023-04-02T01:12:53.567Z,100417.44
2023-04-02T01:14:07.217Z,100420.09
2023-04-02T01:15:21.294Z,100426.97
2023-04-02T01:16:37.462Z,100430.25
2023-04-02T01:17:49.078Z,100426.66
2023-04-02T01:19:07.373Z,100429.94
2023-04-02T01:20:27.723Z,100434.28
2023-04-02T01:21:31.596Z,100431.63
2023-04-02T01:22:52.798Z,100428.06
2023-04-02T01:24:15.840Z,100437.66
2023-04-02T01:25:08.415Z,100441.03
2023-04-02T01:26:18.958Z,100439.25
2023-04-02T01:27:29.750Z,100441.91
2023-04-02T01:28:51.288Z,100441.84
2023-04-02T01:30:01.205Z,100443.59
2023-04-02T01:30:56.477Z,100444.50
2023-04-02T01:31:51.928Z,100446.25
2023-04-02T01:32:45.335Z,100461.00
2023-04-02T01:33:40.830Z,100460.97
2023-04-02T01:34:33.690Z,100457.47
2023-04-02T01:35:34.635Z,100454.81
2023-04-02T01:37:02.892Z,100462.56
2023-04-02T01:38:14.064Z,100464.31
2023-04-02T01:39:25.978Z,100476.41
2023-04-02T01:40:28.282Z,100466.25
2023-04-02T01:41:46.325Z,100465.91
2023-04-02T01:42:51.953Z,100471.81
2023-04-02T01:43:58.925Z,100481.31
2023-04-02T01:45:01.481Z,100477.88
2023-04-02T01:45:53.074Z,100475.44
2023-04-02T01:46:48.881Z,100477.06
2023-04-02T01:47:42.878Z,100477.88
2023-04-02T01:48:34.479Z,100481.41
2023-04-02T01:49:27.272Z,100483.16
2023-04-02T01:50:19.126Z,100484.16
2023-04-02T01:51:27.609Z,100485.75
2023-04-02T01:52:38.996Z,100486.59
2023-04-02T01:53:31.294Z,100485.69
2023-04-02T01:54:25.866Z,100483.81
2023-04-02T01:55:24.486Z,100490.78
2023-04-02T01:56:16.006Z,100497.69
2023-04-02T01:57:09.198Z,100497.69
2023-04-02T01:58:03.711Z,100501.13
2023-04-02T01:58:58.408Z,100499.22
2023-04-02T01:59:53.673Z,100499.09
2023-04-02T02:00:55.845Z,100502.69
2023-04-02T02:01:52.353Z,100513.03
2023-04-02T02:02:49.389Z,100506.22
2023-04-02T02:03:44.378Z,100508.84
2023-04-02T02:04:37.008Z,100508.69
2023-04-02T02:05:31.338Z,100511.09
2023-04-02T02:06:24.388Z,100514.50
2023-04-02T02:07:20.727Z,100517.03
2023-04-02T02:08:30.438Z,100516.13
2023-04-02T02:09:27.569Z,100522.31
2023-04-02T02:10:27.263Z,100522.22
2023-04-02T02:11:22.970Z,100526.72
2023-04-02T02:12:15.714Z,100527.66
2023-04-02T02:13:07.403Z,100522.22
2023-04-02T02:14:18.601Z,100534.97
2023-04-02T02:15:17.401Z,100534.22
2023-04-02T02:16:17.765Z,100532.47
2023-04-02T02:17:24.016Z,100542.00
2023-04-02T02:18:23.412Z,100533.22
2023-04-02T02:19:27.188Z,100537.47
2023-04-02T02:20:18.938Z,100555.47
2023-04-02T02:21:21.418Z,100545.03
2023-04-02T02:22:33.682Z,100547.72
2023-04-02T02:23:29.753Z,100546.94
2023-04-02T02:24:27.109Z,100548.84
2023-04-02T02:25:22.394Z,100547.03
2023-04-02T02:26:16.010Z,100541.03
2023-04-02T02:27:48.180Z,100557.47
2023-04-02T02:28:49.929Z,100555.72
2023-04-02T02:29:45.641Z,100557.50
2023-04-02T02:30:51.278Z,100554.03
2023-04-02T02:31:47.513Z,100561.59
2023-04-02T02:32:54.113Z,100566.28
2023-04-02T02:34:01.750Z,100574.63
2023-04-02T02:35:12.633Z,100574.69
2023-04-02T02:36:33.769Z,100577.13
2023-04-02T02:37:35.114Z,100581.31
2023-04-02T02:38:48.620Z,100582.88
2023-04-02T02:39:55.109Z,100582.88
2023-04-02T02:40:53.224Z,100580.44
2023-04-02T02:42:12.178Z,100588.13
2023-04-02T02:43:12.290Z,100591.28
2023-04-02T02:44:17.505Z,100595.66
2023-04-02T02:45:22.410Z,100596.34
2023-04-02T02:46:20.322Z,100602.41
2023-04-02T02:47:19.550Z,100608.25
2023-04-02T02:48:19.657Z,100601.41
2023-04-02T02:49:22.678Z,100601.38
2023-04-02T02:50:23.078Z,100602.97
2023-04-02T02:51:27.550Z,100603.88
2023-04-02T02:52:41.388Z,100615.91
2023-04-02T02:53:49.650Z,100613.19
2023-04-02T02:54:51.550Z,100616.44
2023-04-02T02:55:43.909Z,100615.69
2023-04-02T02:56:55.804Z,100620.91
2023-04-02T02:57:53.062Z,100625.13
2023-04-02T02:58:45.905Z,100622.66
2023-04-02T02:59:46.879Z,100617.25
2023-04-02T03:00:42.175Z,100624.13
2023-04-02T03:01:34.062Z,100632.56
2023-04-02T03:02:29.335Z,100632.47
2023-04-02T03:03:28.006Z,100634.31
2023-04-02T03:04:25.031Z,100637.06
2023-04-02T03:05:24.962Z,100637.88
2023-04-02T03:06:21.335Z,100643.97
2023-04-02T03:07:25.562Z,100644.53
2023-04-02T03:08:29.182Z,100642.88
2023-04-02T03:09:41.189Z,100640.38
2023-04-02T03:11:08.143Z,100641.03
2023-04-02T03:12:29.500Z,100642.59
2023-04-02T03:13:29.012Z,100649.53
2023-04-02T03:14:32.585Z,100652.66
2023-04-02T03:15:48.013Z,100652.09
2023-04-02T03:16:49.018Z,100649.34
2023-04-02T03:17:58.939Z,100658.84
2023-04-02T03:19:05.312Z,100650.16
2023-04-02T03:20:13.627Z,100664.75
2023-04-02T03:21:29.566Z,100656.97
2023-04-02T03:22:37.248Z,100668.00
2023-04-02T03:23:51.305Z,100663.44
2023-04-02T03:25:22.939Z,100674.91
2023-04-02T03:26:36.959Z,100675.63
2023-04-02T03:27:36.550Z,100672.03
2023-04-02T03:28:37.369Z,100685.78
2023-04-02T03:29:35.705Z,100684.03
2023-04-02T03:30:53.769Z,100688.50
2023-04-02T03:32:14.738Z,100689.38
2023-04-02T03:33:33.976Z,100691.19
2023-04-02T03:34:44.204Z,100695.53
2023-04-02T03:36:22.443Z,100697.38
2023-04-02T03:37:22.691Z,100701.50
2023-04-02T03:38:25.254Z,100702.16
2023-04-02T03:39:26.919Z,100713.41
2023-04-02T03:40:25.377Z,100713.22
2023-04-02T03:41:24.278Z,100711.34
2023-04-02T03:42:27.134Z,100716.47
2023-04-02T03:43:36.841Z,100716.47
2023-04-02T03:45:00.283Z,100718.25
2023-04-02T03:46:02.946Z,100717.56
2023-04-02T03:47:35.296Z,100726.22
2023-04-02T03:48:38.881Z,100720.97
2023-04-02T03:49:39.220Z,100726.25
2023-04-02T03:50:57.316Z,100728.63
2023-04-02T03:51:58.206Z,100725.94
2023-04-02T03:52:50.391Z,100742.34
2023-04-02T03:53:44.592Z,100737.63
2023-04-02T03:54:38.290Z,100741.16
2023-04-02T03:55:33.734Z,100733.28
2023-04-02T03:56:28.989Z,100741.03
2023-04-02T03:57:48.244Z,100741.81
2023-04-02T03:58:47.333Z,100746.00
2023-04-02T04:00:02.336Z,100751.34
2023-04-02T04:01:05.804Z,100754.03
2023-04-02T04:02:34.933Z,100755.13
2023-04-02T04:03:32.746Z,100759.22
2023-04-02T04:04:30.344Z,100762.63
2023-04-02T04:05:28.502Z,100765.84
2023-04-02T04:06:29.639Z,100769.25
2023-04-02T04:07:36.692Z,100769.34
2023-04-02T04:08:42.858Z,100768.31
2023-04-02T04:09:39.184Z,100775.25
2023-04-02T04:10:33.027Z,100770.09
2023-04-02T04:11:32.334Z,100779.38
2023-04-02T04:12:40.136Z,100776.31
2023-04-02T04:14:03.108Z,100783.41
2023-04-02T04:15:07.184Z,100778.31
2023-04-02T04:16:07.855Z,100786.00
2023-04-02T04:17:09.531Z,100786.00
2023-04-02T04:18:43.907Z,100791.00
2023-04-02T04:19:48.544Z,100785.88
2023-04-02T04:20:57.009Z,100795.47
2023-04-02T04:21:56.991Z,100802.34
2023-04-02T04:22:55.942Z,100799.41
2023-04-02T04:23:51.600Z,100804.53
2023-04-02T04:24:47.995Z,100808.06
2023-04-02T04:25:41.710Z,100811.88
2023-04-02T04:27:09.736Z,100810.28
2023-04-02T04:28:21.497Z,100818.78
2023-04-02T04:29:38.326Z,100818.63
2023-04-02T04:30:53.352Z,100826.38
2023-04-02T04:31:56.748Z,100821.72
2023-04-02T04:33:01.823Z,100835.53
2023-04-02T04:34:04.850Z,100830.41
2023-04-02T04:35:08.140Z,100832.16
2023-04-02T04:36:03.282Z,100845.22
2023-04-02T04:37:07.994Z,100841.88
2023-04-02T04:38:18.233Z,100845.16
2023-04-02T04:39:17.805Z,100840.94
2023-04-02T04:40:22.917Z,100845.41
2023-04-02T04:41:24.308Z,100849.56
2023-04-02T04:42:28.294Z,100848.06
2023-04-02T04:43:45.553Z,100852.91
2023-04-02T04:44:55.360Z,100851.91
2023-04-02T04:46:03.436Z,100855.38
2023-04-02T04:47:16.719Z,100862.34
2023-04-02T04:48:26.808Z,100860.47
2023-04-02T04:49:43.929Z,100871.63
2023-04-02T04:50:42.255Z,100870.69
2023-04-02T04:51:42.428Z,100875.09
2023-04-02T04:52:38.625Z,100879.34
2023-04-02T04:53:31.764Z,100880.16
2023-04-02T04:54:28.732Z,100883.56
2023-04-02T04:55:29.536Z,100880.03
2023-04-02T04:56:27.975Z,100887.66
2023-04-02T04:57:36.604Z,100881.91
2023-04-02T04:58:48.233Z,100894.72
2023-04-02T04:59:47.087Z,100890.91
2023-04-02T05:01:03.453Z,100893.59
2023-04-02T05:02:10.476Z,100896.06
2023-04-02T05:03:21.859Z,100894.84
2023-04-02T05:04:19.248Z,100903.41
2023-04-02T05:05:24.138Z,100904.22
2023-04-02T05:06:42.347Z,100905.75
2023-04-02T05:07:49.197Z,100914.34
2023-04-02T05:08:48.264Z,100910.75
2023-04-02T05:10:13.270Z,100914.22
2023-04-02T05:11:19.258Z,100913.53
2023-04-02T05:12:32.426Z,100915.03
2023-04-02T05:13:35.608Z,100924.47
2023-04-02T05:14:42.258Z,100934.00
2023-04-02T05:15:55.564Z,100930.69
2023-04-02T05:17:06.010Z,100931.63
2023-04-02T05:18:27.757Z,100935.63
2023-04-02T05:19:32.815Z,100943.66
2023-04-02T05:20:40.554Z,100942.84
2023-04-02T05:21:54.777Z,100942.69
2023-04-02T05:22:58.522Z,100944.41
2023-04-02T05:24:24.423Z,100947.06
2023-04-02T05:25:32.080Z,100954.75
2023-04-02T05:26:41.243Z,100960.66
2023-04-02T05:27:47.651Z,100956.31
2023-04-02T05:28:52.361Z,100961.47
2023-04-02T05:29:52.034Z,100964.88
2023-04-02T05:31:04.493Z,100959.00
2023-04-02T05:32:23.001Z,100963.19
2023-04-02T05:33:23.872Z,100972.84
2023-04-02T05:34:27.726Z,100971.06
2023-04-02T05:35:28.537Z,100970.25
2023-04-02T05:36:25.198Z,100975.63
2023-04-02T05:37:24.556Z,100976.38
2023-04-02T05:38:27.513Z,100981.63
2023-04-02T05:39:24.498Z,100979.75
2023-04-02T05:40:36.239Z,100982.94
2023-04-02T05:41:58.234Z,100989.69
2023-04-02T05:43:07.633Z,100989.19
2023-04-02T05:44:06.574Z,100998.81
2023-04-02T05:45:23.657Z,100999.63
2023-04-02T05:46:25.005Z,100994.53
2023-04-02T05:47:28.435Z,101001.84
2023-04-02T05:48:30.661Z,101008.75
2023-04-02T05:49:39.259Z,101002.75
2023-04-02T05:50:37.584Z,101010.41
2023-04-02T05:51:46.143Z,101005.47
2023-04-02T05:52:47.287Z,101014.84
2023-04-02T05:53:49.640Z,101022.59
2023-04-02T05:55:03.283Z,101013.00
2023-04-02T05:56:03.149Z,101019.94
2023-04-02T05:57:42.680Z,101024.84
2023-04-02T05:58:43.920Z,101032.59
2023-04-02T05:59:54.372Z,101031.59
2023-04-02T06:01:00.979Z,101038.66
2023-04-02T06:02:03.286Z,101041.00
2023-04-02T06:03:07.473Z,101042.66
2023-04-02T06:04:26.671Z,101043.47
2023-04-02T06:05:36.823Z,101048.47
2023-04-02T06:06:41.412Z,101046.19
2023-04-02T06:07:40.978Z,101043.47
2023-04-02T06:08:43.357Z,101058.22
2023-04-02T06:10:01.290Z,101048.84
2023-04-02T06:10:57.081Z,101060.13
2023-04-02T06:12:19.241Z,101060.28
2023-04-02T06:13:18.594Z,101065.06
2023-04-02T06:14:14.254Z,101069.44
2023-04-02T06:15:06.843Z,101073.06
2023-04-02T06:15:58.528Z,101073.91
2023-04-02T06:16:54.771Z,101071.41
2023-04-02T06:17:53.657Z,101071.28
2023-04-02T06:18:46.033Z,101078.88
2023-04-02T06:19:42.042Z,101078.34
2023-04-02T06:20:34.411Z,101080.94
2023-04-02T06:21:25.984Z,101083.44
2023-04-02T06:22:21.243Z,101092.94
2023-04-02T06:23:38.750Z,101086.16
2023-04-02T06:24:34.358Z,101087.59
2023-04-02T06:25:38.018Z,101095.53
2023-04-02T06:26:39.742Z,101096.44
2023-04-02T06:27:34.754Z,101096.50
2023-04-02T06:28:43.099Z,101104.19
2023-04-02T06:29:39.878Z,101101.53
2023-04-02T06:30:41.675Z,101104.03
2023-04-02T06:31:47.421Z,101110.09
2023-04-02T06:32:40.601Z,101111.94
2023-04-02T06:33:32.434Z,101109.41
2023-04-02T06:34:27.850Z,101105.06
2023-04-02T06:35:30.387Z,101112.44
2023-04-02T06:36:28.420Z,101120.78
2023-04-02T06:37:38.582Z,101113.31
2023-04-02T06:38:54.468Z,101121.28
2023-04-02T06:39:46.523Z,101127.72
2023-04-02T06:40:46.724Z,101123.09
2023-04-02T06:41:56.694Z,101133.56
2023-04-02T06:43:11.628Z,101133.47
2023-04-02T06:44:28.007Z,101132.19
2023-04-02T06:45:41.980Z,101134.00
2023-04-02T06:47:10.768Z,101133.47
2023-04-02T06:48:04.345Z,101135.91
2023-04-02T06:49:20.642Z,101146.09
2023-04-02T06:50:28.679Z,101141.03
2023-04-02T06:51:26.097Z,101145.03
2023-04-02T06:52:35.102Z,101145.22
2023-04-02T06:53:37.695Z,101146.53
2023-04-02T06:54:30.567Z,101148.16
2023-04-02T06:55:34.054Z,101153.84
2023-04-02T06:56:31.860Z,101155.47
2023-04-02T06:57:23.793Z,101149.22
2023-04-02T06:58:19.493Z,101156.88
2023-04-02T06:59:12.764Z,101162.22
2023-04-02T07:00:04.915Z,101164.81
2023-04-02T07:00:57.413Z,101168.03
2023-04-02T07:02:34.362Z,101167.00
2023-04-02T07:03:30.457Z,101174.81
2023-04-02T07:04:26.372Z,101172.59
2023-04-02T07:05:21.161Z,101175.44
2023-04-02T07:06:19.183Z,101180.34
2023-04-02T07:07:12.234Z,101182.50
2023-04-02T07:08:07.916Z,101188.19
2023-04-02T07:08:59.298Z,101185.47
2023-04-02T07:09:51.170Z,101185.16
2023-04-02T07:10:42.691Z,101197.91
2023-04-02T07:11:35.336Z,101192.97
2023-04-02T07:12:29.582Z,101194.75
2023-04-02T07:13:24.180Z,101193.22
2023-04-02T07:14:15.981Z,101204.38
2023-04-02T07:15:07.781Z,101206.28
2023-04-02T07:16:02.752Z,101208.09
2023-04-02T07:16:54.739Z,101219.19
2023-04-02T07:17:46.794Z,101211.94
2023-04-02T07:18:38.566Z,101210.25
2023-04-02T07:19:31.349Z,101214.59
2023-04-02T07:20:30.797Z,101219.47
2023-04-02T07:21:28.938Z,101221.31
2023-04-02T07:22:22.121Z,101222.88
2023-04-02T07:23:21.171Z,101226.63
2023-04-02T07:24:13.081Z,101231.22
2023-04-02T07:25:04.697Z,101235.66
2023-04-02T07:25:58.427Z,101237.63
2023-04-02T07:26:49.964Z,101227.97
2023-04-02T07:27:43.712Z,101238.59
2023-04-02T07:28:35.405Z,101235.28
2023-04-02T07:29:28.525Z,101236.53
2023-04-02T07:30:20.217Z,101246.31
2023-04-02T07:31:24.405Z,101245.34
2023-04-02T07:32:16.277Z,101246.31
2023-04-02T07:33:13.270Z,101246.56
2023-04-02T07:34:07.071Z,101246.41
2023-04-02T07:34:58.590Z,101258.59
2023-04-02T07:35:51.670Z,101260.28
2023-04-02T07:36:43.122Z,101259.41
2023-04-02T07:37:34.903Z,101260.00
2023-04-02T07:38:27.053Z,101256.66
2023-04-02T07:39:18.660Z,101264.59
2023-04-02T07:40:18.229Z,101265.03
2023-04-02T07:41:13.449Z,101271.66
2023-04-02T07:42:04.906Z,101276.66
2023-04-02T07:42:56.327Z,101269.59
2023-04-02T07:43:47.849Z,101270.41
2023-04-02T07:44:39.260Z,101276.16
2023-04-02T07:45:31.390Z,101277.19
2023-04-02T07:46:22.955Z,101280.81
2023-04-02T07:47:16.874Z,101281.25
2023-04-02T07:48:13.310Z,101282.44
2023-04-02T07:49:05.047Z,101285.38
2023-04-02T07:49:56.496Z,101289.69
2023-04-02T07:50:48.252Z,101291.69
2023-04-02T07:51:40.028Z,101289.03
2023-04-02T07:52:31.556Z,101291.25
2023-04-02T07:53:29.936Z,101289.56
2023-04-02T07:54:24.109Z,101296.56
2023-04-02T07:55:16.962Z,101294.00
2023-04-02T07:56:08.552Z,101289.50
2023-04-02T07:57:00.085Z,101299.16
2023-04-02T07:57:56.629Z,101296.03
2023-04-02T07:58:48.164Z,101305.56
2023-04-02T07:59:39.779Z,101297.66
2023-04-02T08:00:31.216Z,101307.97
2023-04-02T08:01:26.312Z,101307.97
2023-04-02T08:02:22.319Z,101309.34
2023-04-02T08:03:14.037Z,101307.16
2023-04-02T08:04:07.964Z,101307.72
2023-04-02T08:04:59.730Z,101315.28
2023-04-02T08:05:56.578Z,101308.06
2023-04-02T08:06:50.300Z,101318.59
2023-04-02T08:07:42.297Z,101318.94
2023-04-02T08:08:33.672Z,101325.38
2023-04-02T08:09:26.744Z,101317.88
2023-04-02T08:10:20.181Z,101322.84
2023-04-02T08:11:14.461Z,101333.47
2023-04-02T08:12:06.382Z,101331.25
2023-04-02T08:12:57.882Z,101328.47
2023-04-02T08:13:49.401Z,101328.50
2023-04-02T08:14:40.996Z,101331.72
2023-04-02T08:15:32.498Z,101336.94
2023-04-02T08:16:25.267Z,101340.41
2023-04-02T08:17:17.023Z,101337.59
2023-04-02T08:18:08.652Z,101350.78
2023-04-02T08:19:01.588Z,101347.84
2023-04-02T08:19:55.035Z,101355.59
2023-04-02T08:20:47.161Z,101353.00
2023-04-02T08:21:38.808Z,101352.09
2023-04-02T08:22:31.798Z,101347.91
2023-04-02T08:23:24.712Z,101351.84
2023-04-02T08:24:19.075Z,101358.88
2023-04-02T08:25:20.017Z,101357.56
2023-04-02T08:26:17.279Z,101361.81
2023-04-02T08:27:15.136Z,101356.75
2023-04-02T08:28:08.058Z,101361.31
2023-04-02T08:28:59.551Z,101370.19
2023-04-02T08:29:51.142Z,101367.13
2023-04-02T08:30:42.893Z,101365.81
2023-04-02T08:31:34.333Z,101368.97
2023-04-02T08:32:28.784Z,101370.22
2023-04-02T08:33:22.507Z,101375.53
2023-04-02T08:34:15.601Z,101381.66
2023-04-02T08:35:08.596Z,101379.69
2023-04-02T08:36:02.703Z,101386.41
2023-04-02T08:36:58.673Z,101383.75
2023-04-02T08:37:50.469Z,101392.91
2023-04-02T08:38:42.102Z,101388.06
2023-04-02T08:39:35.059Z,101395.88
2023-04-02T08:40:49.097Z,101401.56
2023-04-02T08:42:06.783Z,101403.69
2023-04-02T08:43:23.766Z,101400.66
2023-04-02T08:44:44.742Z,101406.50
2023-04-02T08:46:10.690Z,101412.53
2023-04-02T08:47:06.918Z,101409.47
2023-04-02T08:47:59.908Z,101409.75
2023-04-02T08:48:58.837Z,101417.44
2023-04-02T08:50:00.813Z,101424.41
2023-04-02T08:50:52.906Z,101414.63
2023-04-02T08:51:47.219Z,101420.00
2023-04-02T08:52:39.130Z,101426.75
2023-04-02T08:53:36.764Z,101425.72
2023-04-02T08:54:34.321Z,101427.50
2023-04-02T08:55:47.782Z,101427.22
2023-04-02T08:57:04.099Z,101425.06
2023-04-02T08:58:13.228Z,101431.41
2023-04-02T08:59:36.166Z,101439.63
2023-04-02T09:00:44.063Z,101435.25
2023-04-02T09:01:48.579Z,101440.00
2023-04-02T09:02:49.379Z,101447.97
2023-04-02T09:03:54.339Z,101439.31
2023-04-02T09:04:46.075Z,101445.59
2023-04-02T09:05:50.679Z,101440.63
2023-04-02T09:06:43.926Z,101446.56
2023-04-02T09:07:37.783Z,101454.75
2023-04-02T09:08:33.372Z,101448.88
2023-04-02T09:09:30.689Z,101451.66
2023-04-02T09:10:39.193Z,101458.75
2023-04-02T09:11:44.760Z,101459.34
2023-04-02T09:12:43.561Z,101453.44
2023-04-02T09:13:48.940Z,101461.19
2023-04-02T09:15:02.988Z,101457.50
2023-04-02T09:16:10.717Z,101462.38
2023-04-02T09:17:04.552Z,101461.94
2023-04-02T09:18:12.878Z,101470.38
2023-04-02T09:19:26.172Z,101464.59
2023-04-02T09:20:23.985Z,101470.72
2023-04-02T09:21:33.076Z,101471.00
2023-04-02T09:22:31.847Z,101473.53
2023-04-02T09:23:26.801Z,101473.13
2023-04-02T09:24:22.340Z,101477.88
2023-04-02T09:25:27.043Z,101476.03
2023-04-02T09:26:24.708Z,101470.81
2023-04-02T09:27:23.505Z,101481.22
2023-04-02T09:28:15.707Z,101488.31
2023-04-02T09:29:31.335Z,101476.94
2023-04-02T09:30:29.651Z,101479.88
2023-04-02T09:31:34.436Z,101490.19
2023-04-02T09:32:54.571Z,101487.97
2023-04-02T09:33:49.137Z,101488.69
2023-04-02T09:34:40.613Z,101487.22
2023-04-02T09:35:34.467Z,101496.56
2023-04-02T09:36:36.513Z,101492.09
2023-04-02T09:37:27.971Z,101498.53
2023-04-02T09:38:39.412Z,101499.50
2023-04-02T09:39:32.721Z,101508.75
2023-04-02T09:40:34.119Z,101504.47
2023-04-02T09:41:29.469Z,101507.25
2023-04-02T09:42:36.159Z,101509.13
2023-04-02T09:43:32.318Z,101510.59
2023-04-02T09:44:26.269Z,101517.59
2023-04-02T09:45:25.313Z,101519.44
2023-04-02T09:46:25.812Z,101531.78
2023-04-02T09:47:26.281Z,101531.03
2023-04-02T09:48:30.497Z,101535.19
2023-04-02T09:49:27.096Z,101541.03
2023-04-02T09:50:21.502Z,101540.00
2023-04-02T09:51:22.867Z,101542.81
2023-04-02T09:52:19.972Z,101540.56
2023-04-02T09:53:29.536Z,101543.63
2023-04-02T09:54:23.252Z,101549.13
2023-04-02T09:55:15.279Z,101545.88
2023-04-02T09:56:24.330Z,101550.03
2023-04-02T09:57:23.538Z,101550.72
2023-04-02T09:58:21.120Z,101556.19
2023-04-02T09:59:13.526Z,101564.19
2023-04-02T10:00:29.874Z,101555.69
2023-04-02T10:01:29.881Z,101564.03
2023-04-02T10:02:30.158Z,101567.66
2023-04-02T10:03:26.106Z,101564.34
2023-04-02T10:04:36.290Z,101568.47
2023-04-02T10:05:40.731Z,101576.16
2023-04-02T10:06:37.923Z,101580.00
2023-04-02T10:07:43.720Z,101585.94
2023-04-02T10:08:36.664Z,101582.84
2023-04-02T10:09:37.083Z,101583.81
2023-04-02T10:10:32.982Z,101581.22
2023-04-02T10:11:46.316Z,101586.13
2023-04-02T10:12:48.668Z,101586.69
2023-04-02T10:14:11.910Z,101594.19
2023-04-02T10:15:06.053Z,101590.88
2023-04-02T10:16:24.397Z,101591.69
2023-04-02T10:17:31.313Z,101595.50
2023-04-02T10:18:46.635Z,101593.94
2023-04-02T10:19:45.810Z,101600.22
2023-04-02T10:20:50.472Z,101602.00
2023-04-02T10:21:47.129Z,101600.44
2023-04-02T10:22:46.156Z,101602.75
2023-04-02T10:23:37.621Z,101600.03
2023-04-02T10:24:31.454Z,101611.28
2023-04-02T10:25:30.154Z,101609.72
2023-04-02T10:26:37.997Z,101612.59
2023-04-02T10:27:45.214Z,101614.59
2023-04-02T10:29:14.300Z,101620.50
2023-04-02T10:30:29.225Z,101621.25
2023-04-02T10:31:33.456Z,101615.66
2023-04-02T10:32:36.742Z,101616.66
2023-04-02T10:33:37.069Z,101624.63
2023-04-02T10:34:37.493Z,101625.47
2023-04-02T10:35:38.596Z,101627.84
2023-04-02T10:36:52.980Z,101631.94
2023-04-02T10:38:18.204Z,101628.03
2023-04-02T10:39:24.104Z,101626.75
2023-04-02T10:40:38.695Z,101620.78
2023-04-02T10:41:46.157Z,101632.53
2023-04-02T10:43:21.796Z,101635.28
2023-04-02T10:44:39.156Z,101635.59
2023-04-02T10:46:02.932Z,101628.72
2023-04-02T10:47:06.475Z,101643.09
2023-04-02T10:48:28.691Z,101640.91
2023-04-02T10:49:51.120Z,101641.28
2023-04-02T10:50:54.433Z,101644.47
2023-04-02T10:51:51.536Z,101646.19
2023-04-02T10:52:55.034Z,101643.88
2023-04-02T10:54:18.605Z,101644.75
2023-04-02T10:55:33.983Z,101649.19
2023-04-02T10:56:44.172Z,101652.19
2023-04-02T10:57:43.074Z,101650.00
2023-04-02T10:58:47.773Z,101658.28
2023-04-02T11:00:39.989Z,101664.69
2023-04-02T11:01:41.491Z,101655.53
2023-04-02T11:02:53.364Z,101663.44
2023-04-02T11:03:57.799Z,101670.22
2023-04-02T11:04:57.086Z,101666.47
2023-04-02T11:06:00.499Z,101661.69
2023-04-02T11:07:13.275Z,101674.25
2023-04-02T11:08:46.801Z,101677.00
2023-04-02T11:09:44.682Z,101674.38
2023-04-02T11:10:44.561Z,101682.63
2023-04-02T11:11:41.940Z,101683.38
2023-04-02T11:12:49.683Z,101685.06
2023-04-02T11:14:02.655Z,101686.56
2023-04-02T11:14:56.392Z,101686.81
2023-04-02T11:15:51.305Z,101690.97
2023-04-02T11:17:13.228Z,101695.56
2023-04-02T11:18:24.384Z,101692.88
2023-04-02T11:19:19.581Z,101700.94
2023-04-02T11:20:49.823Z,101704.31
2023-04-02T11:22:01.319Z,101694.03
2023-04-02T11:23:12.370Z,101701.25
2023-04-02T11:24:06.355Z,101706.09
2023-04-02T11:24:58.776Z,101706.53
2023-04-02T11:25:50.243Z,101705.25
2023-04-02T11:26:47.393Z,101705.41
2023-04-02T11:27:47.828Z,101706.47
2023-04-02T11:30:18.639Z,101716.13
2023-04-02T11:31:20.613Z,101703.00
2023-04-02T11:32:27.039Z,101720.44
2023-04-02T11:33:44.070Z,101721.19
2023-04-02T11:35:03.078Z,101722.81
2023-04-02T11:35:58.734Z,101717.75
2023-04-02T11:36:53.694Z,101723.09
2023-04-02T11:37:46.046Z,101723.75
2023-04-02T11:38:52.343Z,101728.50
2023-04-02T11:39:59.592Z,101721.75
2023-04-02T11:40:54.928Z,101720.09
2023-04-02T11:42:24.835Z,101728.31
2023-04-02T11:43:35.226Z,101727.13
2023-04-02T11:44:26.872Z,101729.91
2023-04-02T11:45:25.685Z,101730.44
2023-04-02T11:46:19.791Z,101725.47
2023-04-02T11:47:22.657Z,101728.94
2023-04-02T11:48:17.328Z,101729.50
2023-04-02T11:49:39.228Z,101731.41
2023-04-02T11:50:41.281Z,101727.69
2023-04-02T11:51:33.913Z,101727.72